Time;durP1;ratioP1;P1;durP2;ratioP2;P2;SDS_P1;SDS_P2;PMS_P1;PMS_P2;Temp;Humidity;BMP_temperature;BMP_pressure;BME280_temperature;BME280_humidity;BME280_pressure;Samples;Min_cycle;Max_cycle;Signal;HPM_P1;HPM_P2
2021/12/30 00:02:03;;;;;;;7.70;2.40;;;15.80;64.60;;;;;;5115310;28;20016;-63
2021/12/30 00:04:29;;;;;;;8.18;2.13;;;15.80;64.60;;;;;;5115259;28;20073;-63
2021/12/30 00:06:55;;;;;;;9.68;2.72;;;15.80;64.70;;;;;;5115171;28;20024;-63
2021/12/30 00:09:21;;;;;;;9.98;2.70;;;15.80;64.90;;;;;;5115008;28;20566;-63
2021/12/30 00:11:47;;;;;;;8.32;1.85;;;15.80;64.80;;;;;;5115354;28;20024;-63
2021/12/30 00:14:14;;;;;;;8.23;3.22;;;15.80;64.90;;;;;;5115031;28;20015;-63
2021/12/30 00:16:40;;;;;;;8.93;2.28;;;15.80;65.10;;;;;;5115013;28;20493;-63
2021/12/30 00:19:06;;;;;;;8.77;2.40;;;15.80;65.10;;;;;;5114972;28;20023;-63
2021/12/30 00:21:32;;;;;;;9.35;2.63;;;15.80;65.20;;;;;;5096859;28;20027;-63
2021/12/30 00:23:59;;;;;;;6.47;1.83;;;15.80;65.10;;;;;;5114753;28;20486;-63
2021/12/30 00:26:26;;;;;;;9.00;2.08;;;15.70;65.20;;;;;;5115051;28;20031;-63
2021/12/30 00:28:51;;;;;;;7.63;2.20;;;15.70;65.30;;;;;;5096570;28;20505;-63
2021/12/30 00:31:17;;;;;;;8.30;2.35;;;15.70;65.40;;;;;;5114936;28;20031;-63
2021/12/30 00:33:45;;;;;;;7.60;2.30;;;15.70;65.40;;;;;;5114894;28;20027;-63
2021/12/30 00:36:13;;;;;;;7.05;2.10;;;15.70;65.50;;;;;;5114503;28;20497;-63
2021/12/30 00:38:40;;;;;;;8.95;2.40;;;15.70;65.70;;;;;;5114553;28;20475;-63
2021/12/30 00:41:07;;;;;;;8.93;2.03;;;15.70;65.60;;;;;;5114453;28;20485;-63
2021/12/30 00:43:33;;;;;;;7.45;1.73;;;15.70;65.60;;;;;;5114414;28;20019;-63
2021/12/30 00:45:59;;;;;;;8.82;2.30;;;15.70;65.70;;;;;;5079501;28;20098;-63
2021/12/30 00:48:25;;;;;;;7.35;2.03;;;15.70;65.80;;;;;;5114349;28;20104;-63
2021/12/30 00:50:51;;;;;;;7.32;2.20;;;15.70;65.80;;;;;;5096269;28;20081;-63
2021/12/30 00:53:17;;;;;;;6.63;2.33;;;15.70;66.00;;;;;;5114216;28;20015;-63
2021/12/30 00:55:43;;;;;;;7.30;2.03;;;15.70;66.00;;;;;;5096391;28;20023;-63
2021/12/30 00:58:12;;;;;;;6.65;2.08;;;15.70;66.20;;;;;;5114420;28;20060;-63
2021/12/30 01:00:39;;;;;;;7.03;2.03;;;15.60;66.20;;;;;;5096377;28;20032;-63
2021/12/30 01:03:05;;;;;;;7.68;2.28;;;15.70;66.30;;;;;;5114330;28;20082;-63
2021/12/30 01:05:31;;;;;;;6.25;2.05;;;15.70;66.30;;;;;;5114064;28;20074;-63
2021/12/30 01:07:57;;;;;;;6.40;2.10;;;15.70;66.30;;;;;;5095851;28;20015;-63
2021/12/30 01:10:24;;;;;;;6.57;1.92;;;15.70;66.50;;;;;;5113734;28;20047;-63
2021/12/30 01:12:51;;;;;;;6.78;2.03;;;15.70;66.30;;;;;;5114119;28;20012;-63
2021/12/30 01:15:19;;;;;;;5.90;1.90;;;15.70;66.30;;;;;;5096145;28;20095;-63
2021/12/30 01:18:09;;;;;;;6.55;1.80;;;15.70;66.20;;;;;;5113845;28;20047;-63
2021/12/30 01:20:30;;;;;;;4.85;1.85;;;15.70;66.30;;;;;;5113010;28;20083;-63
2021/12/30 01:22:56;;;;;;;4.57;1.70;;;15.70;66.20;;;;;;5113730;28;20045;-63
2021/12/30 01:25:22;;;;;;;5.40;1.85;;;15.80;66.40;;;;;;5113663;28;20167;-63
2021/12/30 01:27:48;;;;;;;6.63;1.77;;;15.70;66.20;;;;;;5113681;28;20028;-63
2021/12/30 01:30:17;;;;;;;5.45;1.80;;;15.80;66.30;;;;;;5113763;28;20027;-63
2021/12/30 01:32:43;;;;;;;7.53;1.90;;;15.80;66.30;;;;;;5113725;28;20012;-63
2021/12/30 01:35:11;;;;;;;5.15;1.63;;;15.80;66.30;;;;;;5113466;28;20018;-63
2021/12/30 01:37:37;;;;;;;5.30;2.13;;;15.80;66.30;;;;;;5095477;28;20022;-63
2021/12/30 01:40:05;;;;;;;6.60;1.80;;;15.80;66.30;;;;;;5095211;28;20026;-63
2021/12/30 01:42:33;;;;;;;6.20;2.00;;;15.80;66.30;;;;;;5113037;28;20032;-63
2021/12/30 01:44:59;;;;;;;7.55;2.35;;;15.80;66.20;;;;;;5113392;28;20016;-63
2021/12/30 01:47:25;;;;;;;5.25;1.63;;;15.80;66.20;;;;;;5113309;28;20046;-63
2021/12/30 01:49:53;;;;;;;5.93;1.90;;;15.80;66.20;;;;;;5113106;28;20525;-63
2021/12/30 01:52:19;;;;;;;5.50;1.48;;;15.80;66.30;;;;;;5113235;28;20016;-63
2021/12/30 01:54:45;;;;;;;4.50;1.50;;;15.80;66.30;;;;;;5113395;28;20004;-63
2021/12/30 01:57:11;;;;;;;5.85;1.80;;;15.80;66.30;;;;;;5095131;28;20504;-63
2021/12/30 01:59:37;;;;;;;7.63;2.25;;;15.80;66.50;;;;;;5113091;28;20015;-64
2021/12/30 02:02:04;;;;;;;4.68;1.55;;;15.80;66.40;;;;;;5095460;28;20016;-63
2021/12/30 02:04:30;;;;;;;5.43;1.77;;;15.80;66.50;;;;;;5095083;28;20020;-63
2021/12/30 02:06:57;;;;;;;3.55;1.80;;;15.80;66.40;;;;;;5112991;28;20539;-63
2021/12/30 02:09:23;;;;;;;6.25;1.63;;;15.80;66.60;;;;;;5112803;28;20052;-63
2021/12/30 02:11:50;;;;;;;5.05;1.38;;;15.80;66.70;;;;;;5113249;28;20023;-63
2021/12/30 02:14:16;;;;;;;5.80;1.90;;;15.80;66.70;;;;;;5112960;28;20360;-63
2021/12/30 02:16:42;;;;;;;5.20;1.83;;;15.70;66.70;;;;;;5113198;28;20016;-63
2021/12/30 02:19:08;;;;;;;4.53;1.20;;;15.70;66.80;;;;;;5112833;28;20015;-63
2021/12/30 02:21:35;;;;;;;4.72;1.40;;;15.70;66.90;;;;;;5113141;28;20030;-63
2021/12/30 02:24:02;;;;;;;4.88;1.48;;;15.80;67.10;;;;;;5094799;28;20030;-63
2021/12/30 02:26:28;;;;;;;6.38;1.70;;;15.70;67.10;;;;;;5112817;28;20028;-63
2021/12/30 02:28:53;;;;;;;5.47;1.95;;;15.70;67.10;;;;;;5112743;28;20019;-63
2021/12/30 02:31:24;;;;;;;5.22;1.42;;;15.70;67.10;;;;;;5112794;28;20027;-63
2021/12/30 02:33:50;;;;;;;4.32;1.50;;;15.70;67.20;;;;;;5112775;28;20076;-63
2021/12/30 02:36:26;;;;;;;4.43;1.52;;;15.70;67.40;;;;;;5113065;28;20145;-63
2021/12/30 02:38:53;;;;;;;3.58;1.40;;;15.70;67.40;;;;;;5112954;28;20019;-63
2021/12/30 02:41:19;;;;;;;4.72;1.23;;;15.70;67.60;;;;;;5112772;28;20027;-63
2021/12/30 02:43:47;;;;;;;4.22;1.25;;;15.70;67.60;;;;;;5094424;28;20020;-63
2021/12/30 02:46:13;;;;;;;3.78;1.20;;;15.70;67.70;;;;;;5112611;28;20008;-63
2021/12/30 02:48:41;;;;;;;3.28;1.25;;;15.70;67.80;;;;;;5112863;28;20032;-63
2021/12/30 02:51:08;;;;;;;3.97;1.40;;;15.70;67.70;;;;;;5112746;28;20028;-65
2021/12/30 02:53:34;;;;;;;2.80;1.10;;;15.70;67.80;;;;;;5116671;28;20015;-63
2021/12/30 02:56:01;;;;;;;3.30;1.10;;;15.70;67.90;;;;;;5098839;28;20023;-64
2021/12/30 02:58:27;;;;;;;5.13;1.83;;;15.60;68.10;;;;;;5081889;28;20082;-63
2021/12/30 03:01:07;;;;;;;2.30;1.13;;;15.60;68.00;;;;;;5098418;28;20480;-64
2021/12/30 03:03:33;;;;;;;2.83;1.00;;;15.70;68.20;;;;;;5116785;28;20015;-63
2021/12/30 03:06:01;;;;;;;2.83;1.23;;;15.70;68.30;;;;;;5098256;28;20495;-63
2021/12/30 03:08:28;;;;;;;3.95;1.13;;;15.70;68.40;;;;;;5116191;28;20497;-63
2021/12/30 03:10:53;;;;;;;3.10;1.13;;;15.60;68.30;;;;;;5116543;28;20028;-63
2021/12/30 03:13:25;;;;;;;3.40;1.20;;;15.60;68.50;;;;;;5098288;28;20507;-64
2021/12/30 03:15:51;;;;;;;3.30;0.90;;;15.60;68.60;;;;;;5099381;28;20016;-63
2021/12/30 03:18:17;;;;;;;4.00;1.20;;;15.60;68.60;;;;;;5116770;28;20531;-63
2021/12/30 03:20:43;;;;;;;2.60;0.98;;;15.60;68.70;;;;;;5119730;28;20008;-64
2021/12/30 03:23:09;;;;;;;3.20;1.17;;;15.60;68.70;;;;;;5122412;28;20012;-63
2021/12/30 03:25:34;;;;;;;2.25;0.93;;;15.60;68.90;;;;;;5139906;28;20008;-63
2021/12/30 03:28:01;;;;;;;2.58;1.00;;;15.60;69.00;;;;;;5128995;28;20019;-63
2021/12/30 03:30:27;;;;;;;3.10;1.05;;;15.60;69.30;;;;;;5116226;28;20034;-63
2021/12/30 03:32:54;;;;;;;3.47;1.05;;;15.60;69.30;;;;;;5116334;28;20498;-63
2021/12/30 03:35:20;;;;;;;3.75;1.00;;;15.60;69.30;;;;;;5115895;28;20028;-63
2021/12/30 03:37:47;;;;;;;2.10;0.80;;;15.60;69.30;;;;;;5116500;28;20493;-63
2021/12/30 03:40:14;;;;;;;2.50;1.00;;;15.60;69.30;;;;;;5123675;28;20031;-63
2021/12/30 03:42:40;;;;;;;2.45;1.00;;;15.50;69.50;;;;;;5105272;28;20019;-63
2021/12/30 03:45:07;;;;;;;1.98;0.68;;;15.60;69.60;;;;;;5122359;28;20061;-63
2021/12/30 03:47:39;;;;;;;2.28;0.80;;;15.50;69.50;;;;;;5102547;28;20016;-64
2021/12/30 03:50:06;;;;;;;2.28;0.77;;;15.60;69.50;;;;;;5120466;28;20020;-64
2021/12/30 03:52:33;;;;;;;2.97;1.00;;;15.60;69.40;;;;;;5120262;28;20016;-64
2021/12/30 03:54:59;;;;;;;1.58;0.80;;;15.60;69.60;;;;;;5120425;28;20016;-65
2021/12/30 03:57:26;;;;;;;1.83;1.02;;;15.60;69.60;;;;;;5120077;28;20008;-64
2021/12/30 03:59:52;;;;;;;2.78;0.63;;;15.60;69.70;;;;;;5102183;28;20019;-64
2021/12/30 04:02:19;;;;;;;1.98;0.63;;;15.60;69.50;;;;;;5119610;28;20024;-65
2021/12/30 04:04:46;;;;;;;2.42;0.95;;;15.60;69.60;;;;;;5120393;28;20081;-63
2021/12/30 04:07:12;;;;;;;2.47;0.73;;;15.70;69.70;;;;;;5121148;28;20016;-63
2021/12/30 04:09:39;;;;;;;2.20;0.90;;;15.70;69.60;;;;;;5120856;28;20578;-64
2021/12/30 04:12:05;;;;;;;1.98;0.80;;;15.70;69.60;;;;;;5119865;28;20008;-65
2021/12/30 04:14:32;;;;;;;1.45;0.60;;;15.70;69.70;;;;;;5115521;28;20027;-63
2021/12/30 04:16:58;;;;;;;2.63;1.27;;;15.70;69.60;;;;;;5115393;28;20012;-63
2021/12/30 04:19:24;;;;;;;2.72;0.80;;;15.70;69.60;;;;;;5115052;28;20024;-63
2021/12/30 04:21:54;;;;;;;1.42;0.85;;;15.70;69.60;;;;;;5097060;28;20023;-66
2021/12/30 04:24:20;;;;;;;1.65;0.63;;;15.70;69.60;;;;;;5115046;28;20015;-64
2021/12/30 04:26:50;;;;;;;2.95;0.90;;;15.70;69.60;;;;;;5114975;28;20024;-63
2021/12/30 04:29:17;;;;;;;2.17;0.60;;;15.70;69.60;;;;;;5113438;28;20035;-64
2021/12/30 04:31:43;;;;;;;1.77;0.80;;;15.70;69.50;;;;;;5097022;28;20012;-63
2021/12/30 04:34:10;;;;;;;1.23;0.60;;;15.70;69.60;;;;;;5097207;28;20016;-63
2021/12/30 04:36:35;;;;;;;1.48;0.60;;;15.70;69.60;;;;;;5114891;28;20015;-63
2021/12/30 04:39:02;;;;;;;1.55;0.52;;;15.70;69.60;;;;;;5115071;28;20088;-63
2021/12/30 04:41:29;;;;;;;1.70;0.60;;;15.70;69.60;;;;;;5096754;28;20012;-63
2021/12/30 04:43:55;;;;;;;2.13;0.70;;;15.70;69.60;;;;;;5115991;28;20015;-63
2021/12/30 04:46:20;;;;;;;2.58;0.63;;;15.70;69.60;;;;;;5097670;28;20023;-63
2021/12/30 04:48:47;;;;;;;1.25;0.70;;;15.70;69.70;;;;;;5116266;28;20016;-63
2021/12/30 04:51:13;;;;;;;0.93;0.60;;;15.70;69.70;;;;;;5097598;28;20048;-63
2021/12/30 04:53:39;;;;;;;1.30;0.63;;;15.70;69.70;;;;;;5115568;28;20061;-63
2021/12/30 04:56:05;;;;;;;1.60;0.60;;;15.70;69.90;;;;;;5115339;28;20023;-63
2021/12/30 04:58:31;;;;;;;1.83;0.60;;;15.70;69.80;;;;;;5097570;28;20030;-63
2021/12/30 05:00:58;;;;;;;1.77;0.68;;;15.70;69.80;;;;;;5115683;28;20023;-63
2021/12/30 05:03:24;;;;;;;0.93;0.60;;;15.70;69.90;;;;;;5115400;28;20024;-63
2021/12/30 05:05:52;;;;;;;1.73;0.60;;;15.70;69.90;;;;;;5115208;28;20056;-63
2021/12/30 05:08:19;;;;;;;1.75;0.50;;;15.70;70.00;;;;;;5114501;28;20069;-63
2021/12/30 05:10:46;;;;;;;1.83;0.70;;;15.60;70.00;;;;;;5096601;28;20027;-63
2021/12/30 05:13:13;;;;;;;1.48;0.65;;;15.60;70.00;;;;;;5114906;28;20007;-63
2021/12/30 05:15:39;;;;;;;2.33;0.90;;;15.60;70.00;;;;;;5095984;28;20026;-63
2021/12/30 05:18:06;;;;;;;1.30;0.60;;;15.60;69.90;;;;;;5114469;28;20095;-63
2021/12/30 05:20:35;;;;;;;1.38;0.50;;;15.60;70.00;;;;;;5096348;28;20012;-63
2021/12/30 05:23:02;;;;;;;1.35;0.63;;;15.60;70.20;;;;;;5114677;28;20040;-63
2021/12/30 05:25:29;;;;;;;1.25;0.57;;;15.60;70.10;;;;;;5114263;28;20020;-63
2021/12/30 05:27:55;;;;;;;1.13;0.40;;;15.60;70.20;;;;;;5116096;28;20012;-63
2021/12/30 05:30:22;;;;;;;1.38;0.52;;;15.60;70.20;;;;;;5117399;28;20024;-62
2021/12/30 05:32:48;;;;;;;1.00;0.55;;;15.60;70.30;;;;;;5117326;28;20058;-63
2021/12/30 05:35:14;;;;;;;1.40;0.60;;;15.60;70.40;;;;;;5117293;28;20011;-63
2021/12/30 05:37:41;;;;;;;1.50;0.60;;;15.60;70.40;;;;;;5117732;28;20012;-63
2021/12/30 05:40:10;;;;;;;1.38;0.50;;;15.60;70.40;;;;;;5118918;28;20036;-63
2021/12/30 05:42:40;;;;;;;1.07;0.50;;;15.60;70.40;;;;;;5119503;28;20007;-63
2021/12/30 05:45:06;;;;;;;1.38;0.50;;;15.60;70.50;;;;;;5118349;28;20039;-63
2021/12/30 05:47:33;;;;;;;1.30;0.50;;;15.60;70.50;;;;;;5099278;28;20016;-63
2021/12/30 05:50:00;;;;;;;1.63;0.70;;;15.60;70.60;;;;;;5118325;28;20019;-63
2021/12/30 05:52:26;;;;;;;0.98;0.50;;;15.50;70.60;;;;;;5099906;28;20091;-63
2021/12/30 05:54:52;;;;;;;2.35;0.65;;;15.60;70.70;;;;;;5118180;28;20019;-63
2021/12/30 05:57:19;;;;;;;0.93;0.50;;;15.60;70.70;;;;;;5116784;28;20027;-62
2021/12/30 05:59:45;;;;;;;1.00;0.45;;;15.60;70.80;;;;;;5113795;28;20043;-62
2021/12/30 06:02:11;;;;;;;0.60;0.50;;;15.60;70.80;;;;;;5113812;28;20050;-63
2021/12/30 06:04:41;;;;;;;1.48;0.55;;;15.60;70.90;;;;;;5112621;28;20120;-62
2021/12/30 06:07:08;;;;;;;0.75;0.50;;;15.60;70.80;;;;;;5114696;28;20014;-63
2021/12/30 06:09:33;;;;;;;1.00;0.45;;;15.60;70.90;;;;;;5093884;28;20072;-63
2021/12/30 06:11:59;;;;;;;1.02;0.52;;;15.60;70.70;;;;;;5092626;28;20052;-63
2021/12/30 06:14:25;;;;;;;0.82;0.50;;;15.60;70.90;;;;;;5110894;28;20101;-63
2021/12/30 06:16:51;;;;;;;1.13;0.60;;;15.60;70.80;;;;;;5095127;28;20043;-63
2021/12/30 06:19:18;;;;;;;1.17;0.60;;;15.60;71.00;;;;;;5094924;28;20028;-62
2021/12/30 06:21:45;;;;;;;1.27;0.50;;;15.60;71.00;;;;;;5094065;28;20020;-63
2021/12/30 06:24:11;;;;;;;1.25;0.70;;;15.60;71.00;;;;;;5093426;28;20016;-63
2021/12/30 06:26:37;;;;;;;0.85;0.40;;;15.60;71.10;;;;;;5094767;28;20077;-63
2021/12/30 06:29:03;;;;;;;0.95;0.50;;;15.50;71.00;;;;;;5098143;28;20019;-63
2021/12/30 06:31:29;;;;;;;0.70;0.40;;;15.50;71.00;;;;;;5096272;28;20022;-63
2021/12/30 06:33:55;;;;;;;1.05;0.43;;;15.60;71.00;;;;;;5096933;28;20091;-63
2021/12/30 06:36:22;;;;;;;1.20;0.50;;;15.60;71.10;;;;;;5096607;28;20016;-63
2021/12/30 06:38:51;;;;;;;1.02;0.40;;;15.50;71.10;;;;;;5113638;28;20016;-63
2021/12/30 06:41:17;;;;;;;0.90;0.50;;;15.50;71.00;;;;;;5097746;28;20387;-63
2021/12/30 06:43:44;;;;;;;1.25;0.50;;;15.50;71.30;;;;;;5097671;28;20260;-63
2021/12/30 06:46:12;;;;;;;1.70;0.65;;;15.60;71.40;;;;;;5097405;28;20023;-62
2021/12/30 06:48:38;;;;;;;0.65;0.43;;;15.60;71.30;;;;;;5095988;28;20019;-63
2021/12/30 06:51:05;;;;;;;1.27;0.60;;;15.60;71.10;;;;;;5095645;28;20052;-64
2021/12/30 06:53:33;;;;;;;1.27;0.43;;;15.60;71.30;;;;;;5096900;28;20459;-62
2021/12/30 06:55:58;;;;;;;1.35;0.50;;;15.60;71.30;;;;;;5096714;28;20031;-63
2021/12/30 06:58:24;;;;;;;0.73;0.43;;;15.60;71.40;;;;;;5096909;28;20008;-63
2021/12/30 07:00:50;;;;;;;1.40;0.50;;;15.60;71.40;;;;;;5096675;28;20470;-62
2021/12/30 07:03:17;;;;;;;0.73;0.50;;;15.60;71.30;;;;;;5095549;28;20020;-63
2021/12/30 07:05:42;;;;;;;0.70;0.40;;;15.60;71.30;;;;;;5095412;28;20027;-63
2021/12/30 07:08:08;;;;;;;0.90;0.40;;;15.60;71.30;;;;;;5096730;28;20016;-63
2021/12/30 07:10:34;;;;;;;0.93;0.60;;;15.60;71.30;;;;;;5096404;28;20491;-63
2021/12/30 07:13:00;;;;;;;0.80;0.50;;;15.60;71.20;;;;;;5096006;28;20463;-63
2021/12/30 07:15:26;;;;;;;1.02;0.50;;;15.60;71.20;;;;;;5098013;28;20017;-63
2021/12/30 07:17:52;;;;;;;1.15;0.50;;;15.60;71.20;;;;;;5096516;28;20024;-63
2021/12/30 07:20:18;;;;;;;0.85;0.40;;;15.70;71.30;;;;;;5097045;28;20016;-63
2021/12/30 07:22:45;;;;;;;1.23;0.50;;;15.60;71.20;;;;;;5098096;28;20161;-63
2021/12/30 07:25:16;;;;;;;2.15;0.60;;;15.60;71.20;;;;;;5097883;28;20016;-62
2021/12/30 07:27:46;;;;;;;1.30;0.40;;;15.60;71.20;;;;;;5096244;28;20017;-63
2021/12/30 07:30:12;;;;;;;0.40;0.40;;;15.70;71.10;;;;;;5094860;28;20024;-63
2021/12/30 07:32:38;;;;;;;1.77;0.50;;;15.70;71.10;;;;;;5095633;28;20093;-63
2021/12/30 07:35:04;;;;;;;0.85;0.50;;;15.70;71.20;;;;;;5095804;28;20475;-62
2021/12/30 07:37:29;;;;;;;1.20;0.60;;;15.60;71.10;;;;;;5095161;28;20028;-63
2021/12/30 07:39:55;;;;;;;1.42;0.50;;;15.70;71.20;;;;;;5095533;28;20020;-62
2021/12/30 07:42:21;;;;;;;1.17;0.57;;;15.70;71.00;;;;;;5095900;28;20031;-63
2021/12/30 07:44:47;;;;;;;1.50;0.60;;;15.70;71.00;;;;;;5096599;28;20551;-62
2021/12/30 07:47:13;;;;;;;0.82;0.40;;;15.70;71.10;;;;;;5095418;28;20038;-63
2021/12/30 07:49:38;;;;;;;0.82;0.45;;;15.70;71.10;;;;;;5096806;28;20546;-63
2021/12/30 07:52:06;;;;;;;0.60;0.47;;;15.70;71.20;;;;;;5095738;28;20009;-63
2021/12/30 07:54:31;;;;;;;1.30;0.50;;;15.70;71.20;;;;;;5096641;28;20024;-63
2021/12/30 07:57:00;;;;;;;1.35;0.65;;;15.60;71.10;;;;;;5096204;28;20547;-63
2021/12/30 07:59:27;;;;;;;1.07;0.40;;;15.60;71.20;;;;;;5094628;28;20020;-64
2021/12/30 08:01:52;;;;;;;1.13;0.50;;;15.60;71.20;;;;;;5095675;28;20391;-64
2021/12/30 08:04:19;;;;;;;0.55;0.40;;;15.60;71.20;;;;;;5095462;28;20016;-63
2021/12/30 08:06:47;;;;;;;1.00;0.50;;;15.60;71.20;;;;;;5095996;28;20024;-65
2021/12/30 08:09:15;;;;;;;0.90;0.55;;;15.60;71.30;;;;;;5104179;28;20099;-63
2021/12/30 08:11:42;;;;;;;1.67;0.60;;;15.60;71.20;;;;;;5097476;28;20026;-63
2021/12/30 08:14:07;;;;;;;1.45;0.60;;;15.60;71.40;;;;;;5099351;28;20012;-63
2021/12/30 08:16:33;;;;;;;0.85;0.50;;;15.60;71.30;;;;;;5115828;28;20436;-63
2021/12/30 08:18:59;;;;;;;1.52;0.52;;;15.60;71.30;;;;;;5098586;28;20559;-63
2021/12/30 08:21:25;;;;;;;0.90;0.60;;;15.60;71.30;;;;;;5097664;28;20020;-63
2021/12/30 08:23:52;;;;;;;1.83;0.55;;;15.60;71.40;;;;;;5115800;28;20020;-62
2021/12/30 08:26:21;;;;;;;0.98;0.47;;;15.60;71.50;;;;;;5097959;28;20018;-62
2021/12/30 08:28:47;;;;;;;0.68;0.50;;;15.60;71.40;;;;;;5115533;28;20509;-63
2021/12/30 08:31:13;;;;;;;1.30;0.60;;;15.60;71.40;;;;;;5115650;28;20032;-63
2021/12/30 08:33:39;;;;;;;1.27;0.60;;;15.60;71.40;;;;;;5115391;28;20087;-62
2021/12/30 08:36:05;;;;;;;1.45;0.75;;;15.60;71.50;;;;;;5097524;28;20019;-63
2021/12/30 08:38:31;;;;;;;2.03;0.50;;;15.60;71.50;;;;;;5115886;28;20559;-62
2021/12/30 08:40:57;;;;;;;2.05;0.65;;;15.60;71.50;;;;;;5115140;28;20538;-63
2021/12/30 08:43:23;;;;;;;1.65;0.55;;;15.60;71.50;;;;;;5115495;28;20459;-63
2021/12/30 08:45:49;;;;;;;1.55;0.70;;;15.60;71.30;;;;;;5097389;28;20027;-62
2021/12/30 08:48:19;;;;;;;1.60;0.70;;;15.60;71.40;;;;;;5097092;28;20024;-62
2021/12/30 08:50:45;;;;;;;2.70;0.98;;;15.60;71.40;;;;;;5097019;28;20490;-62
2021/12/30 08:53:13;;;;;;;2.92;0.90;;;15.60;71.20;;;;;;5097487;28;20019;-62
2021/12/30 08:55:39;;;;;;;1.90;0.68;;;15.60;71.40;;;;;;5115347;28;20020;-62
2021/12/30 08:58:05;;;;;;;1.95;0.70;;;15.60;71.30;;;;;;5115689;28;20543;-62
2021/12/30 09:00:36;;;;;;;2.55;0.63;;;15.60;71.30;;;;;;5115304;28;20022;-62
2021/12/30 09:03:04;;;;;;;2.58;1.10;;;15.60;71.40;;;;;;5114972;28;20102;-63
2021/12/30 09:05:30;;;;;;;2.05;0.75;;;15.60;71.40;;;;;;5114787;28;20546;-62
2021/12/30 09:07:56;;;;;;;2.60;0.70;;;15.60;71.50;;;;;;5114478;28;20516;-63
2021/12/30 09:10:22;;;;;;;2.67;0.98;;;15.60;71.60;;;;;;5096092;28;20073;-63
2021/12/30 09:12:49;;;;;;;2.72;0.88;;;15.60;71.40;;;;;;5114548;28;20020;-62
2021/12/30 09:15:16;;;;;;;3.88;0.90;;;15.60;71.50;;;;;;5079538;28;20016;-63
2021/12/30 09:17:44;;;;;;;2.63;0.93;;;15.50;71.40;;;;;;5096387;28;20019;-62
2021/12/30 09:20:10;;;;;;;2.25;0.80;;;15.50;71.50;;;;;;5114120;28;20044;-63
2021/12/30 09:22:36;;;;;;;2.85;1.00;;;15.60;71.60;;;;;;5095655;28;20016;-63
2021/12/30 09:25:05;;;;;;;2.88;0.93;;;15.50;71.40;;;;;;5079433;28;20011;-63
2021/12/30 09:27:32;;;;;;;1.88;0.75;;;15.60;71.50;;;;;;5113951;28;20022;-63
2021/12/30 09:29:59;;;;;;;2.53;0.90;;;15.50;71.50;;;;;;5114481;28;20024;-62
2021/12/30 09:32:25;;;;;;;2.90;0.88;;;15.60;71.50;;;;;;5080751;28;20039;-63
2021/12/30 09:34:51;;;;;;;3.17;0.90;;;15.60;71.60;;;;;;5116310;28;20016;-62
2021/12/30 09:37:17;;;;;;;6.05;1.20;;;15.60;71.50;;;;;;5114509;28;20016;-63
2021/12/30 09:39:43;;;;;;;3.00;0.98;;;15.60;71.50;;;;;;5113600;28;20011;-63
2021/12/30 09:42:09;;;;;;;4.18;1.33;;;15.60;71.60;;;;;;5114498;28;20026;-63
2021/12/30 09:44:34;;;;;;;3.28;1.20;;;15.50;71.60;;;;;;5095904;28;20019;-63
2021/12/30 09:47:00;;;;;;;4.72;1.08;;;15.50;71.60;;;;;;5095739;28;20024;-63
2021/12/30 09:49:27;;;;;;;5.75;1.30;;;15.50;71.50;;;;;;5113563;28;20024;-62
2021/12/30 09:51:53;;;;;;;5.28;0.93;;;15.50;71.60;;;;;;5095351;28;20016;-63
2021/12/30 09:54:22;;;;;;;3.42;1.00;;;15.60;71.60;;;;;;5095550;28;20020;-63
2021/12/30 09:56:48;;;;;;;4.35;1.05;;;15.60;71.60;;;;;;5113680;28;20012;-63
2021/12/30 09:59:14;;;;;;;6.07;1.13;;;15.60;71.50;;;;;;5096516;28;20011;-62
2021/12/30 10:01:41;;;;;;;3.75;1.02;;;15.50;71.40;;;;;;5113969;28;20497;-63
2021/12/30 10:04:08;;;;;;;4.68;1.30;;;15.60;71.40;;;;;;5114240;28;20654;-63
2021/12/30 10:06:34;;;;;;;3.97;1.40;;;15.60;71.50;;;;;;5096009;28;20008;-63
2021/12/30 10:09:06;;;;;;;4.68;1.30;;;15.50;71.50;;;;;;5095315;28;20554;-63
2021/12/30 10:11:52;;;;;;;4.88;1.40;;;15.60;71.40;;;;;;5113005;28;20047;-63
2021/12/30 10:14:36;;;;;;;3.95;1.02;;;15.60;71.40;;;;;;5113027;28;20417;-62
2021/12/30 10:17:23;;;;;;;4.97;1.10;;;15.60;71.40;;;;;;5113131;28;20015;-63
2021/12/30 10:19:53;;;;;;;4.00;1.15;;;15.60;71.40;;;;;;5096155;28;20054;-63
2021/12/30 10:22:21;;;;;;;3.00;1.23;;;15.60;71.50;;;;;;5113134;28;20020;-63
2021/12/30 10:24:47;;;;;;;4.43;1.15;;;15.50;71.40;;;;;;5094772;28;20744;-62
2021/12/30 10:27:27;;;;;;;3.00;1.08;;;15.60;71.50;;;;;;5095032;28;20012;-63
2021/12/30 10:29:53;;;;;;;4.70;1.38;;;15.60;71.60;;;;;;5112851;28;20059;-62
2021/12/30 10:32:24;;;;;;;3.90;1.20;;;15.50;71.60;;;;;;5095217;28;20505;-63
2021/12/30 10:35:10;;;;;;;5.60;1.75;;;15.50;71.50;;;;;;5113035;28;20057;-62
2021/12/30 10:37:37;;;;;;;4.95;1.17;;;15.50;71.60;;;;;;5094936;28;20015;-62
2021/12/30 10:40:06;;;;;;;3.20;1.20;;;15.60;71.70;;;;;;5113097;28;20020;-62
2021/12/30 10:42:33;;;;;;;3.38;1.02;;;15.60;71.50;;;;;;5113209;28;20076;-62
2021/12/30 10:45:06;;;;;;;4.38;1.30;;;15.60;71.40;;;;;;5078668;28;20019;-62
2021/12/30 10:47:53;;;;;;;3.22;1.00;;;15.60;71.30;;;;;;5112777;28;20034;-62
2021/12/30 10:50:23;;;;;;;4.00;1.17;;;15.70;71.10;;;;;;5112723;28;20036;-62
2021/12/30 10:52:51;;;;;;;3.78;1.30;;;15.80;70.50;;;;;;5113034;28;20012;-63
2021/12/30 10:55:17;;;;;;;2.90;1.10;;;15.90;70.20;;;;;;5094750;28;20018;-63
2021/12/30 10:57:44;;;;;;;4.20;1.20;;;16.00;70.00;;;;;;5113055;28;20023;-63
2021/12/30 11:00:10;;;;;;;4.07;1.20;;;16.10;69.60;;;;;;5112767;28;20008;-63
2021/12/30 11:02:38;;;;;;;3.00;1.00;;;16.10;69.30;;;;;;5112637;28;20020;-63
2021/12/30 11:05:09;;;;;;;5.53;1.30;;;16.20;69.10;;;;;;5094389;28;20012;-63
2021/12/30 11:07:47;;;;;;;4.43;1.48;;;16.20;68.90;;;;;;5112626;28;20085;-62
2021/12/30 11:10:13;;;;;;;3.92;1.15;;;16.30;69.00;;;;;;5112374;28;20130;-63
2021/12/30 11:12:42;;;;;;;4.28;1.33;;;16.40;68.40;;;;;;5113746;28;20043;-63
2021/12/30 11:15:19;;;;;;;4.70;1.10;;;16.30;68.20;;;;;;5116297;28;20040;-63
2021/12/30 11:17:45;;;;;;;5.68;1.30;;;16.30;68.10;;;;;;5098167;28;20462;-63
2021/12/30 11:20:11;;;;;;;2.92;1.10;;;16.30;68.10;;;;;;5116232;28;20024;-62
2021/12/30 11:22:38;;;;;;;4.38;1.17;;;16.30;68.10;;;;;;5098380;28;20019;-63
2021/12/30 11:25:10;;;;;;;3.75;1.23;;;16.20;68.20;;;;;;5116135;28;20478;-63
2021/12/30 11:27:36;;;;;;;4.25;1.20;;;16.20;68.30;;;;;;5116041;28;20533;-63
2021/12/30 11:30:14;;;;;;;3.85;1.00;;;16.20;68.50;;;;;;5097919;28;20114;-63
2021/12/30 11:32:40;;;;;;;4.00;1.33;;;16.20;68.50;;;;;;5116207;28;20020;-63
2021/12/30 11:35:07;;;;;;;4.65;1.10;;;16.10;68.60;;;;;;5116156;28;20027;-63
2021/12/30 11:37:33;;;;;;;4.57;1.33;;;16.10;68.80;;;;;;5081040;28;20027;-63
2021/12/30 11:40:00;;;;;;;2.63;0.90;;;16.10;69.00;;;;;;5115809;28;20024;-63
2021/12/30 11:42:36;;;;;;;4.07;1.17;;;16.00;69.20;;;;;;5115839;28;20015;-63
2021/12/30 11:45:02;;;;;;;4.35;1.30;;;16.00;69.10;;;;;;5115783;28;20031;-63
2021/12/30 11:47:34;;;;;;;3.75;1.08;;;16.00;69.10;;;;;;5097361;28;20016;-63
2021/12/30 11:50:02;;;;;;;5.18;1.52;;;16.00;69.20;;;;;;5115485;28;20055;-62
2021/12/30 11:52:59;;;;;;;4.75;1.40;;;16.00;69.30;;;;;;5115545;28;20019;-63
2021/12/30 11:56:03;;;;;;;3.35;1.10;;;15.90;69.40;;;;;;5115781;28;20072;-62
2021/12/30 12:01:13;;;;;;;2.65;1.00;;;15.90;69.50;;;;;;5115405;28;20073;-63
2021/12/30 12:03:45;;;;;;;3.38;1.20;;;15.90;69.60;;;;;;5115616;28;20043;-62
2021/12/30 12:06:31;;;;;;;3.45;1.10;;;15.90;69.50;;;;;;5097028;28;20016;-62
2021/12/30 12:08:58;;;;;;;6.15;2.10;;;15.90;69.50;;;;;;5115063;28;20040;-62
2021/12/30 12:11:40;;;;;;;3.78;1.10;;;15.90;69.50;;;;;;5115001;28;20027;-62
2021/12/30 12:14:19;;;;;;;4.53;1.40;;;15.90;69.60;;;;;;5115193;28;20016;-62
2021/12/30 12:16:47;;;;;;;2.97;1.20;;;15.90;69.60;;;;;;5098012;28;20019;-62
2021/12/30 12:19:13;;;;;;;3.95;1.10;;;15.80;69.80;;;;;;5115083;28;20012;-63
2021/12/30 12:21:50;;;;;;;3.97;1.40;;;15.80;69.80;;;;;;5114950;28;20474;-62
2021/12/30 12:24:28;;;;;;;3.95;1.20;;;15.80;69.90;;;;;;5096856;28;20032;-62
2021/12/30 12:27:00;;;;;;;3.80;1.10;;;15.90;69.90;;;;;;5115172;28;20035;-63
2021/12/30 12:29:28;;;;;;;4.20;1.17;;;15.90;69.90;;;;;;5114835;28;20486;-63
2021/12/30 12:32:00;;;;;;;3.40;1.00;;;15.80;69.90;;;;;;5114872;28;20012;-62
2021/12/30 12:34:59;;;;;;;3.22;1.10;;;15.80;69.90;;;;;;5115171;28;20015;-63
2021/12/30 12:37:36;;;;;;;2.90;1.20;;;15.80;70.00;;;;;;5032114;28;20036;-62
2021/12/30 12:40:16;;;;;;;4.00;1.20;;;15.80;70.00;;;;;;5032116;28;20205;-62
2021/12/30 12:42:50;;;;;;;4.90;1.67;;;15.80;70.10;;;;;;5032283;28;20034;-62
2021/12/30 12:45:54;;;;;;;4.15;1.02;;;15.80;70.20;;;;;;5031779;28;20029;-62
2021/12/30 12:48:24;;;;;;;4.32;1.30;;;15.80;70.20;;;;;;5048438;28;20124;-62
2021/12/30 12:50:55;;;;;;;4.03;1.33;;;15.80;70.20;;;;;;5031636;28;20607;-63
2021/12/30 12:53:28;;;;;;;4.18;1.15;;;15.80;70.70;;;;;;5031747;28;20038;-63
2021/12/30 12:55:57;;;;;;;3.00;1.17;;;15.80;70.10;;;;;;5031812;28;20013;-62